LEAS/OVD METAR and TAF weather

Enter ICAO airport designator
Station Type Date Time Source
LEAS METAR 2022/12/08 12:30 UTC NOAA

LEAS 081230Z 10009KT 060V150 9999 FEW020 BKN070 13/10 Q0999 TEMPO RA


Station Type Date Time Source
LEAS Decoded METAR 2022/12/08 12:30 UTC NOAA

Asturias / Aviles, Spain (LEAS) 43-33N 006-02W 130M
Dec 08, 2022 - 07:30 AM EST / 2022.12.08 1230 UTC
Wind: from the E (100 degrees) at 10 MPH (9 KT) (direction variable):0
Visibility: greater than 7 mile(s):0
Sky conditions: mostly cloudy
Temperature: 55 F (13 C)
Dew Point: 50 F (10 C)
Relative Humidity: 81%
Pressure (altimeter): 29.50 in. Hg (0999 hPa)
ob: LEAS 081230Z 10009KT 060V150 9999 FEW020 BKN070 13/10 Q0999 TEMPO RA
cycle: 12

Station Type Date Time Source
LEAS TAF 2022/12/08 09:27 UTC NOAA

TAF TAF LEAS 080800Z 0809/0909 09009KT 9999 SCT010 BKN020 TX11/0812Z TN09/0818Z PROB40
TEMPO 0809/0909 3000 RADZ BR BKN010 PROB40
TEMPO 0820/0909 1500 RA BKN005 PROB30
TEMPO 0822/0909 0800 BCFG BKN002 PROB40
TEMPO 0904/0909 07015G25KT

Example: see airport list